Time;durP1;ratioP1;P1;durP2;ratioP2;P2;SDS_P1;SDS_P2;PMS_P1;PMS_P2;Temp;Humidity;BMP_temperature;BMP_pressure;BME280_temperature;BME280_humidity;BME280_pressure;Samples;Min_cycle;Max_cycle;Signal;HPM_P1;HPM_P2
2022/05/14 00:02:37;;;;;;;10.30;3.80;;;;;;;14.01;79.60;100135.49;1741592;82;21268;-83
2022/05/14 00:05:37;;;;;;;12.80;3.77;;;;;;;13.97;81.27;100146.07;1742006;82;21154;-83
2022/05/14 00:08:45;;;;;;;8.25;4.30;;;;;;;13.93;82.90;100139.80;1733521;82;21170;-84
2022/05/14 00:15:08;;;;;;;17.07;4.37;;;;;;;13.82;85.31;100099.95;1724077;83;21272;-83
2022/05/14 00:18:14;;;;;;;15.13;4.10;;;;;;;13.79;86.45;100082.52;1724511;82;21241;-84
2022/05/14 00:21:20;;;;;;;14.05;4.55;;;;;;;13.73;87.58;100040.70;1725227;83;21170;-84
2022/05/14 00:24:25;;;;;;;11.68;4.28;;;;;;;13.62;87.97;100000.06;1725211;83;21731;-83
2022/05/14 00:27:31;;;;;;;8.28;3.70;;;;;;;13.47;89.71;99998.83;1724711;82;21210;-84
2022/05/14 00:30:37;;;;;;;15.45;4.20;;;;;;;13.28;91.12;99983.39;1724582;83;21236;-83
2022/05/14 00:33:43;;;;;;;10.28;4.05;;;;;;;13.17;91.89;99963.83;1725153;82;21209;-83
2022/05/14 00:36:49;;;;;;;12.78;4.05;;;;;;;13.11;92.92;99983.87;1725078;82;21194;-83
2022/05/14 00:39:54;;;;;;;14.98;4.28;;;;;;;13.13;93.29;99999.64;1724217;83;21166;-82
2022/05/14 00:43:00;;;;;;;10.58;3.90;;;;;;;13.15;94.17;99987.92;1724238;82;21218;-82
2022/05/14 00:46:20;;;;;;;9.03;4.12;;;;;;;13.15;95.49;99965.95;1724541;83;21210;-82
2022/05/14 00:49:21;;;;;;;15.40;4.47;;;;;;;13.10;96.76;99986.30;1724712;83;21198;-84
2022/05/14 00:52:27;;;;;;;10.78;4.95;;;;;;;13.03;97.83;99992.60;1724971;82;21197;-83
2022/05/14 00:55:32;;;;;;;17.30;3.98;;;;;;;13.01;98.61;99986.44;1725170;83;21171;-83
2022/05/14 00:59:02;;;;;;;15.83;5.10;;;;;;;12.99;99.39;99969.86;1723956;82;21276;-85
2022/05/14 01:02:08;;;;;;;10.10;3.55;;;;;;;12.93;100.00;99939.92;1723948;82;21214;-84
2022/05/14 01:05:17;;;;;;;14.60;4.65;;;;;;;12.90;100.00;99914.27;1725223;83;21158;-84
2022/05/14 01:08:23;;;;;;;10.23;4.47;;;;;;;12.76;100.00;99898.75;1724252;82;21201;-84
2022/05/14 01:11:29;;;;;;;15.20;4.78;;;;;;;12.61;100.00;99884.27;1742100;82;21193;-85
2022/05/14 01:14:35;;;;;;;9.70;5.05;;;;;;;12.49;100.00;99857.39;1742047;82;21165;-78
2022/05/14 01:17:41;;;;;;;13.78;4.60;;;;;;;12.39;100.00;99830.84;1719638;82;21188;-78
2022/05/14 01:20:46;;;;;;;8.20;4.20;;;;;;;12.28;100.00;99839.11;1741050;82;21217;-78
2022/05/14 01:27:27;;;;;;;7.87;4.30;;;;;;;12.15;100.00;99834.03;1740894;82;21221;-78
2022/05/14 01:30:32;;;;;;;10.15;4.42;;;;;;;12.09;100.00;99820.60;1740686;82;21193;-78
2022/05/14 01:33:39;;;;;;;8.53;4.20;;;;;;;12.03;100.00;99814.52;1740456;82;21245;-79
2022/05/14 01:36:46;;;;;;;10.82;4.35;;;;;;;11.95;100.00;99812.78;1719643;82;21157;-79
2022/05/14 01:39:51;;;;;;;5.78;4.10;;;;;;;11.88;100.00;99824.20;1741636;82;21244;-79
2022/05/14 01:42:51;;;;;;;8.80;4.60;;;;;;;11.85;100.00;99839.65;1740632;82;21197;-78
2022/05/14 01:45:56;;;;;;;9.50;4.60;;;;;;;11.83;100.00;99845.86;1740562;82;21240;-79
2022/05/14 01:49:02;;;;;;;8.80;4.83;;;;;;;11.84;100.00;99842.59;1740694;82;21209;-79
2022/05/14 01:52:08;;;;;;;10.00;5.17;;;;;;;11.86;100.00;99839.16;1740611;82;21216;-78
2022/05/14 01:55:14;;;;;;;9.53;4.45;;;;;;;11.84;100.00;99839.33;1741918;82;21710;-79
2022/05/14 01:58:38;;;;;;;12.23;4.03;;;;;;;11.84;100.00;99827.00;1740931;82;21232;-78
2022/05/14 02:01:45;;;;;;;8.00;4.08;;;;;;;11.78;100.00;99790.77;1740621;82;21209;-78
2022/05/14 02:04:51;;;;;;;15.90;4.45;;;;;;;11.68;100.00;99786.99;1741877;82;21169;-78
2022/05/14 02:07:57;;;;;;;10.00;4.20;;;;;;;11.59;100.00;99800.49;1741253;82;21248;-78
2022/05/14 02:11:02;;;;;;;10.65;4.10;;;;;;;11.56;100.00;99816.46;1737876;82;21185;-78
2022/05/14 02:14:09;;;;;;;10.08;3.77;;;;;;;11.51;100.00;99808.30;1736421;82;21762;-78
2022/05/14 02:17:14;;;;;;;7.65;3.62;;;;;;;11.47;100.00;99815.20;1735361;82;21680;-78
2022/05/14 02:20:20;;;;;;;8.40;3.27;;;;;;;11.42;100.00;99834.11;1734727;82;21193;-78
2022/05/14 02:23:25;;;;;;;6.70;3.55;;;;;;;11.41;100.00;99835.16;1735239;82;21165;-78
2022/05/14 02:26:31;;;;;;;8.80;3.27;;;;;;;11.42;100.00;99846.44;1736338;82;21209;-78
2022/05/14 02:29:53;;;;;;;9.58;3.40;;;;;;;11.44;100.00;99864.91;1736199;82;21310;-77
2022/05/14 02:33:00;;;;;;;7.28;3.25;;;;;;;11.44;100.00;99884.08;1735210;82;21217;-78
2022/05/14 02:36:07;;;;;;;11.43;3.27;;;;;;;11.45;100.00;99883.03;1736249;82;21746;-78
2022/05/14 02:39:13;;;;;;;8.03;3.15;;;;;;;11.48;100.00;99877.70;1736328;82;21243;-78
2022/05/14 02:42:19;;;;;;;8.55;2.80;;;;;;;11.50;100.00;99872.34;1734935;82;21240;-78
2022/05/14 02:45:24;;;;;;;8.55;3.15;;;;;;;11.54;100.00;99874.19;1736254;82;21464;-78
2022/05/14 02:48:31;;;;;;;10.32;3.62;;;;;;;11.56;100.00;99882.20;1736073;82;21786;-78
2022/05/14 02:51:37;;;;;;;6.67;2.75;;;;;;;11.57;100.00;99886.11;1735257;82;21758;-78
2022/05/14 02:54:42;;;;;;;5.85;2.95;;;;;;;11.59;100.00;99888.67;1736135;82;21741;-78
2022/05/14 02:57:48;;;;;;;6.33;2.80;;;;;;;11.64;100.00;99894.42;1736200;82;21201;-78
2022/05/14 03:00:53;;;;;;;6.28;3.30;;;;;;;11.65;100.00;99896.95;1736080;82;21213;-78
2022/05/14 03:04:00;;;;;;;9.08;3.10;;;;;;;11.66;100.00;99884.95;1736011;82;21217;-78
2022/05/14 03:07:12;;;;;;;9.73;3.10;;;;;;;11.65;100.00;99885.15;1736197;82;21205;-78
2022/05/14 03:10:06;;;;;;;5.28;2.80;;;;;;;11.61;100.00;99879.73;1736504;82;21333;-78
2022/05/14 03:13:13;;;;;;;11.78;3.40;;;;;;;11.57;100.00;99871.04;1739990;82;21727;-78
2022/05/14 03:16:21;;;;;;;8.75;3.22;;;;;;;11.56;100.00;99872.61;1741619;82;21163;-78
2022/05/14 03:19:25;;;;;;;6.78;3.05;;;;;;;11.50;100.00;99866.02;1741608;82;21232;-79
2022/05/14 03:22:30;;;;;;;8.45;2.90;;;;;;;11.49;100.00;99868.44;1740730;82;21228;-79
2022/05/14 03:25:35;;;;;;;8.73;3.37;;;;;;;11.48;100.00;99864.02;1741692;82;21154;-79
2022/05/14 03:28:41;;;;;;;7.53;3.58;;;;;;;11.48;100.00;99856.64;1740205;82;21798;-79
2022/05/14 03:31:48;;;;;;;5.85;3.30;;;;;;;11.47;100.00;99859.02;1740110;82;21813;-79
2022/05/14 03:34:55;;;;;;;8.28;3.17;;;;;;;11.46;100.00;99856.49;1741645;82;21165;-79
2022/05/14 03:38:01;;;;;;;6.30;2.55;;;;;;;11.45;100.00;99850.69;1741012;82;21209;-78
2022/05/14 03:41:06;;;;;;;6.40;2.90;;;;;;;11.43;100.00;99840.44;1741658;82;21154;-78
2022/05/14 03:44:11;;;;;;;6.55;3.65;;;;;;;11.41;100.00;99834.31;1741739;82;21154;-78
2022/05/14 03:47:17;;;;;;;8.00;3.10;;;;;;;11.41;100.00;99840.64;1741472;82;21198;-79
2022/05/14 03:50:22;;;;;;;7.60;2.98;;;;;;;11.41;100.00;99838.42;1741750;82;21229;-79
2022/05/14 03:53:29;;;;;;;6.35;3.42;;;;;;;11.39;100.00;99845.47;1740694;82;21236;-79
2022/05/14 03:56:39;;;;;;;7.50;3.33;;;;;;;11.37;100.00;99846.17;1741708;82;21201;-79
2022/05/14 03:59:42;;;;;;;6.05;3.27;;;;;;;11.37;100.00;99842.06;1740287;82;21173;-79
2022/05/14 04:02:48;;;;;;;4.78;2.90;;;;;;;11.39;100.00;99828.20;1740422;82;21212;-79
2022/05/14 04:05:48;;;;;;;4.60;2.70;;;;;;;11.42;100.00;99818.20;1740627;82;21184;-79
2022/05/14 04:08:53;;;;;;;6.53;2.95;;;;;;;11.43;100.00;99817.16;1740511;82;21244;-79
2022/05/14 04:11:59;;;;;;;5.78;3.02;;;;;;;11.43;100.00;99813.92;1741383;82;21280;-79
2022/05/14 04:15:05;;;;;;;6.85;3.02;;;;;;;11.44;100.00;99806.56;1712268;84;21138;-79
2022/05/14 04:18:10;;;;;;;10.60;3.20;;;;;;;11.44;100.00;99799.19;1711407;84;21206;-79
2022/05/14 04:21:16;;;;;;;5.95;3.17;;;;;;;11.47;100.00;99781.50;1722314;83;21715;-79
2022/05/14 04:24:23;;;;;;;7.72;3.25;;;;;;;11.55;100.00;99773.69;1722395;83;21146;-79
2022/05/14 04:27:29;;;;;;;5.62;2.95;;;;;;;11.64;100.00;99772.52;1720857;83;21220;-79
2022/05/14 04:30:35;;;;;;;5.83;2.70;;;;;;;11.78;100.00;99774.33;1722303;83;21165;-79
2022/05/14 04:33:40;;;;;;;7.97;2.95;;;;;;;11.86;100.00;99782.45;1721217;83;21232;-79
2022/05/14 04:36:46;;;;;;;9.48;3.20;;;;;;;11.97;100.00;99790.13;1722042;83;21166;-79
2022/05/14 04:39:53;;;;;;;6.85;3.10;;;;;;;12.10;100.00;99795.41;1722378;83;21173;-79
2022/05/14 04:43:00;;;;;;;11.12;2.92;;;;;;;12.16;100.00;99794.59;1721534;83;21240;-79
2022/05/14 04:46:06;;;;;;;9.45;2.62;;;;;;;12.19;100.00;99796.42;1722184;83;21818;-78
2022/05/14 04:49:11;;;;;;;5.05;2.47;;;;;;;12.20;100.00;99791.79;1721912;83;21204;-79
2022/05/14 04:52:17;;;;;;;5.03;2.55;;;;;;;12.20;100.00;99790.42;1721923;83;21177;-79
2022/05/14 04:55:23;;;;;;;9.45;3.00;;;;;;;12.18;100.00;99788.37;1722299;83;21212;-79
2022/05/14 04:58:28;;;;;;;10.05;2.85;;;;;;;12.21;100.00;99791.58;1721237;83;21232;-79
2022/05/14 05:01:34;;;;;;;6.75;2.52;;;;;;;12.27;100.00;99791.30;1722120;83;21174;-79
2022/05/14 05:04:41;;;;;;;8.85;3.00;;;;;;;12.35;100.00;99793.05;1721946;83;21208;-79
2022/05/14 05:07:47;;;;;;;6.22;2.08;;;;;;;12.41;100.00;99794.98;1722341;83;21196;-79
2022/05/14 05:10:54;;;;;;;5.47;2.05;;;;;;;12.45;100.00;99793.53;1722159;83;21717;-79
2022/05/14 05:14:01;;;;;;;5.35;2.20;;;;;;;12.48;100.00;99789.88;1736209;81;21504;-79
2022/05/14 05:17:07;;;;;;;6.30;2.22;;;;;;;12.51;100.00;99793.59;1749281;81;21192;-79
2022/05/14 05:20:13;;;;;;;8.10;2.30;;;;;;;12.52;100.00;99790.33;1737165;82;21216;-79
2022/05/14 05:23:21;;;;;;;6.60;2.27;;;;;;;12.50;100.00;99795.99;1733152;82;21248;-79
2022/05/14 05:26:27;;;;;;;4.50;2.22;;;;;;;12.47;100.00;99791.45;1737815;82;21153;-79
2022/05/14 05:29:33;;;;;;;4.10;2.12;;;;;;;12.46;100.00;99789.73;1732123;83;21178;-79
2022/05/14 05:32:38;;;;;;;5.37;2.25;;;;;;;12.50;100.00;99796.52;1749978;81;21204;-79
2022/05/14 05:35:44;;;;;;;8.98;2.35;;;;;;;12.57;100.00;99793.84;1750107;82;21196;-79
2022/05/14 05:38:51;;;;;;;5.03;1.90;;;;;;;12.55;100.00;99796.77;1719668;82;21210;-79
2022/05/14 05:41:58;;;;;;;5.50;2.47;;;;;;;12.51;100.00;99803.20;1730691;83;21229;-79
2022/05/14 05:45:04;;;;;;;5.83;2.15;;;;;;;12.47;100.00;99795.05;1741895;81;21240;-79
2022/05/14 05:48:11;;;;;;;7.62;2.20;;;;;;;12.46;100.00;99806.20;1759983;81;21187;-79
2022/05/14 05:51:10;;;;;;;4.67;2.10;;;;;;;12.45;100.00;99802.61;1760146;81;21163;-78
2022/05/14 05:57:41;;;;;;;4.53;2.58;;;;;;;12.44;100.00;99795.96;1760418;81;21231;-83
2022/05/14 06:00:46;;;;;;;6.00;2.47;;;;;;;12.45;100.00;99795.75;1733088;81;21162;-83
2022/05/14 06:03:52;;;;;;;5.65;2.55;;;;;;;12.48;100.00;99802.22;1749552;81;21188;-82
2022/05/14 06:06:58;;;;;;;8.95;2.20;;;;;;;12.52;100.00;99788.42;1749530;81;21270;-83
2022/05/14 06:10:04;;;;;;;4.60;2.10;;;;;;;12.57;100.00;99791.94;1750719;82;21805;-83
2022/05/14 06:13:09;;;;;;;5.83;2.37;;;;;;;12.59;100.00;99791.73;1749954;81;21200;-83
2022/05/14 06:16:14;;;;;;;6.35;2.70;;;;;;;12.64;100.00;99784.58;1745833;81;21748;-83
2022/05/14 06:19:20;;;;;;;13.18;2.47;;;;;;;12.74;100.00;99777.34;1735854;82;21176;-83
2022/05/14 06:22:25;;;;;;;7.45;2.30;;;;;;;12.87;100.00;99770.55;1736805;82;21208;-82
2022/05/14 06:25:31;;;;;;;5.47;2.75;;;;;;;13.03;100.00;99781.20;1735797;82;21172;-83
2022/05/14 06:28:37;;;;;;;7.67;3.02;;;;;;;13.20;100.00;99783.56;1735968;82;21184;-82
2022/05/14 06:31:42;;;;;;;14.90;5.83;;;;;;;13.34;100.00;99782.59;1737117;82;21196;-82
2022/05/14 06:34:48;;;;;;;27.00;11.75;;;;;;;13.46;100.00;99780.09;1744798;82;21200;-83
2022/05/14 06:37:55;;;;;;;32.35;14.47;;;;;;;13.53;100.00;99771.32;1751176;81;21228;-82
2022/05/14 06:41:02;;;;;;;43.85;20.43;;;;;;;13.61;100.00;99774.41;1752049;82;21246;-82
2022/05/14 06:44:01;;;;;;;62.93;25.45;;;;;;;13.69;100.00;99767.31;1751901;82;21180;-83
2022/05/14 06:46:53;;;;;;;77.10;33.50;;;;;;;13.77;100.00;99769.88;1746787;82;21192;-83
2022/05/14 06:50:01;;;;;;;84.17;33.30;;;;;;;13.81;100.00;99759.63;1737268;82;21206;-82
2022/05/14 06:53:09;;;;;;;79.65;33.45;;;;;;;13.89;100.00;99751.70;1736420;82;21312;-83
2022/05/14 06:56:15;;;;;;;83.40;38.15;;;;;;;14.03;100.00;99746.52;1737181;82;21753;-82
2022/05/14 06:59:15;;;;;;;74.77;35.58;;;;;;;14.23;100.00;99745.65;1743464;82;21741;-83
2022/05/14 07:02:20;;;;;;;59.35;28.07;;;;;;;14.44;99.54;99754.17;1751692;81;21212;-82
2022/05/14 07:08:48;;;;;;;43.20;20.85;;;;;;;14.81;96.48;99769.13;1722337;83;21204;-82
2022/05/14 07:11:56;;;;;;;40.45;19.60;;;;;;;14.84;93.91;99779.72;1722065;83;21232;-82
2022/05/14 07:15:03;;;;;;;37.78;17.82;;;;;;;14.88;93.97;99774.64;1726162;82;21756;-82
2022/05/14 07:18:09;;;;;;;46.35;21.50;;;;;;;14.92;93.19;99773.14;1736469;82;21224;-82
2022/05/14 07:21:14;;;;;;;41.85;20.97;;;;;;;14.94;92.02;99762.20;1737215;82;21161;-82
2022/05/14 07:24:22;;;;;;;50.33;21.02;;;;;;;14.88;90.55;99764.47;1737076;82;21172;-81
2022/05/14 07:27:28;;;;;;;54.83;22.20;;;;;;;14.83;89.69;99756.86;1736794;82;21231;-82
2022/05/14 07:30:28;;;;;;;46.05;19.80;;;;;;;14.83;89.65;99753.27;1743596;82;21783;-82
2022/05/14 07:33:33;;;;;;;56.28;22.73;;;;;;;14.82;89.50;99744.69;1750923;81;21742;-82
2022/05/14 07:36:49;;;;;;;65.08;27.30;;;;;;;14.85;89.03;99737.36;1750609;81;21813;-82
2022/05/14 07:40:07;;;;;;;62.83;25.80;;;;;;;14.85;88.33;99731.84;1747003;82;21141;-79
2022/05/14 07:43:22;;;;;;;114.87;37.70;;;;;;;14.93;89.30;99726.10;1734521;82;21212;-79
2022/05/14 07:46:30;;;;;;;128.12;44.67;;;;;;;14.99;89.43;99730.72;1745590;82;21796;-79
2022/05/14 07:49:36;;;;;;;127.85;42.60;;;;;;;15.10;89.41;99737.45;1737203;82;21710;-79
2022/05/14 07:52:44;;;;;;;102.40;39.78;;;;;;;15.19;87.67;99740.80;1737176;82;21743;-79
2022/05/14 07:55:51;;;;;;;94.87;37.90;;;;;;;15.19;85.05;99733.91;1736716;82;21208;-79
2022/05/14 07:59:12;;;;;;;86.90;33.23;;;;;;;15.14;85.28;99732.34;1748507;82;21708;-79
2022/05/14 08:02:34;;;;;;;69.05;28.85;;;;;;;15.19;86.85;99744.92;1746918;82;21236;-79
2022/05/14 08:05:40;;;;;;;55.92;23.85;;;;;;;15.23;85.70;99740.13;1750485;82;21177;-79
2022/05/14 08:08:46;;;;;;;59.70;24.45;;;;;;;15.23;84.43;99729.65;1751623;82;21180;-79
2022/05/14 08:11:53;;;;;;;53.48;21.07;;;;;;;15.13;84.03;99738.92;1732424;82;21490;-79
2022/05/14 08:15:00;;;;;;;39.38;17.25;;;;;;;15.09;84.97;99750.37;1737051;82;21160;-79
2022/05/14 08:18:06;;;;;;;36.40;14.78;;;;;;;15.13;85.62;99754.92;1739833;81;21180;-79
2022/05/14 08:24:35;;;;;;;14.00;6.70;;;;;;;15.05;85.39;99756.00;1750044;82;21168;-79
2022/05/14 08:27:47;;;;;;;17.82;6.53;;;;;;;14.97;85.64;99753.52;1751592;81;21204;-79
2022/05/14 08:30:55;;;;;;;10.70;3.77;;;;;;;14.95;86.13;99750.13;1743250;82;21176;-79
2022/05/14 08:34:00;;;;;;;14.23;5.40;;;;;;;14.90;85.74;99749.94;1742110;82;21187;-79
2022/05/14 08:37:05;;;;;;;23.22;7.55;;;;;;;14.86;85.66;99750.59;1736910;82;21186;-79
2022/05/14 08:40:39;;;;;;;12.07;4.00;;;;;;;14.86;85.00;99756.09;1749413;82;21149;-79
2022/05/14 08:43:55;;;;;;;13.83;4.33;;;;;;;14.85;84.71;99756.63;1729978;82;21338;-79
2022/05/14 08:47:04;;;;;;;16.32;4.17;;;;;;;14.88;85.18;99759.49;1750772;81;21680;-79
2022/05/14 08:50:13;;;;;;;13.03;4.80;;;;;;;14.91;85.94;99754.91;1747846;82;21160;-79
2022/05/14 08:53:21;;;;;;;12.00;5.25;;;;;;;14.93;85.32;99755.02;1724291;82;21337;-79
2022/05/14 08:56:53;;;;;;;12.35;4.95;;;;;;;14.95;84.94;99746.53;1752003;82;21745;-79
2022/05/14 09:00:02;;;;;;;13.48;4.15;;;;;;;14.98;86.47;99744.19;1751880;82;21209;-79
2022/05/14 09:03:09;;;;;;;15.60;3.52;;;;;;;15.00;86.07;99744.80;1750946;81;21192;-79
2022/05/14 09:06:16;;;;;;;7.05;3.35;;;;;;;15.04;86.27;99749.34;1751383;82;21262;-79
2022/05/14 09:09:21;;;;;;;8.33;2.87;;;;;;;15.07;87.25;99742.87;1751152;82;21197;-79
2022/05/14 09:12:35;;;;;;;12.63;3.50;;;;;;;15.17;87.80;99745.16;1751778;81;21731;-79
2022/05/14 09:15:41;;;;;;;10.85;3.10;;;;;;;15.25;87.79;99731.13;1750911;82;21745;-79
2022/05/14 09:18:53;;;;;;;14.18;3.67;;;;;;;15.35;86.95;99727.89;1750701;81;21192;-79
2022/05/14 09:22:02;;;;;;;7.75;3.12;;;;;;;15.42;85.88;99721.79;1752163;81;21260;-79
2022/05/14 09:25:28;;;;;;;9.35;3.00;;;;;;;15.49;85.74;99723.98;1751037;82;21228;-79
2022/05/14 09:28:53;;;;;;;16.55;3.12;;;;;;;15.51;85.77;99716.33;1751107;81;21208;-79
2022/05/14 09:32:04;;;;;;;7.42;3.10;;;;;;;15.57;85.77;99715.95;1734740;81;21712;-79
2022/05/14 09:35:35;;;;;;;9.33;3.25;;;;;;;15.64;85.40;99722.31;1752106;82;21157;-79
2022/05/14 09:38:42;;;;;;;9.75;2.90;;;;;;;15.69;85.51;99724.41;1750910;81;21180;-78
2022/05/14 09:41:57;;;;;;;10.28;3.00;;;;;;;15.83;85.64;99728.73;1739305;81;21208;-78
2022/05/14 09:45:03;;;;;;;7.30;3.47;;;;;;;15.93;84.66;99730.99;1733552;82;21168;-78
2022/05/14 09:48:29;;;;;;;10.43;2.85;;;;;;;16.06;83.99;99723.98;1750038;81;21193;-78
2022/05/14 09:51:38;;;;;;;6.28;2.92;;;;;;;16.08;83.96;99719.91;1751831;82;21168;-78
2022/05/14 09:54:51;;;;;;;14.25;3.02;;;;;;;16.04;85.06;99713.19;1752122;82;21741;-78
2022/05/14 09:58:07;;;;;;;7.75;3.17;;;;;;;16.01;84.32;99706.73;1747496;81;21180;-78
2022/05/14 10:01:20;;;;;;;12.30;3.85;;;;;;;15.97;85.10;99695.84;1742283;82;21706;-78
2022/05/14 10:04:51;;;;;;;8.00;3.62;;;;;;;15.96;85.43;99688.64;1735926;82;21223;-78
2022/05/14 10:08:06;;;;;;;7.25;3.25;;;;;;;15.94;86.07;99680.27;1743185;82;21184;-78
2022/05/14 10:11:44;;;;;;;14.70;4.20;;;;;;;15.96;87.07;99669.34;1751047;82;21161;-78
2022/05/14 10:15:11;;;;;;;12.60;4.45;;;;;;;15.97;87.77;99664.13;1743775;82;21213;-78
2022/05/14 10:19:04;;;;;;;12.75;4.17;;;;;;;15.89;87.70;99655.29;1751223;81;21184;-79
2022/05/14 10:30:20;;;;;;;12.98;4.28;;;;;;;15.93;89.08;99644.95;1721763;82;21296;-78
2022/05/14 10:33:30;;;;;;;10.30;3.27;;;;;;;15.98;89.81;99632.70;1733684;81;21216;-78
2022/05/14 10:36:54;;;;;;;10.10;3.52;;;;;;;16.20;89.60;99635.03;1735009;82;21169;-78
2022/05/14 10:40:28;;;;;;;9.50;4.17;;;;;;;16.28;90.01;99627.84;1734997;82;21237;-79
2022/05/14 10:44:03;;;;;;;12.33;4.50;;;;;;;16.39;87.98;99628.44;1734963;81;21212;-79
2022/05/14 10:47:11;;;;;;;12.82;5.03;;;;;;;16.48;89.07;99631.73;1734867;81;21754;-79
2022/05/14 10:50:23;;;;;;;11.15;5.22;;;;;;;16.57;89.16;99631.19;1734753;82;21754;-82
2022/05/14 10:53:28;;;;;;;10.72;5.08;;;;;;;16.75;88.39;99628.10;1734183;81;21801;-82
2022/05/14 10:56:39;;;;;;;15.20;5.85;;;;;;;16.92;87.24;99623.62;1735154;82;21165;-82
2022/05/14 10:59:37;;;;;;;13.70;5.87;;;;;;;17.02;84.77;99616.98;1735074;82;21738;-83
2022/05/14 11:02:42;;;;;;;12.85;4.87;;;;;;;17.09;84.20;99621.05;1734660;81;21228;-82
2022/05/14 11:06:01;;;;;;;16.65;5.80;;;;;;;17.17;84.96;99621.23;1734479;82;21205;-82
2022/05/14 11:09:06;;;;;;;11.35;4.50;;;;;;;17.24;83.54;99631.66;1734023;82;21173;-82
2022/05/14 11:12:19;;;;;;;10.05;4.25;;;;;;;17.35;82.69;99623.92;1734915;81;21220;-82
2022/05/14 11:15:36;;;;;;;15.83;5.05;;;;;;;17.44;82.82;99625.27;1735197;82;21169;-82
2022/05/14 11:18:56;;;;;;;12.20;4.45;;;;;;;17.52;83.37;99623.55;1733867;81;21217;-82
2022/05/14 11:22:01;;;;;;;11.05;5.10;;;;;;;17.61;83.00;99613.82;1740718;81;21718;-82
2022/05/14 11:25:22;;;;;;;7.05;4.40;;;;;;;17.70;80.62;99617.08;1751851;82;21213;-82
2022/05/14 11:28:37;;;;;;;12.55;4.85;;;;;;;17.69;81.21;99621.45;1750780;81;21293;-82
2022/05/14 11:31:43;;;;;;;13.55;4.67;;;;;;;17.78;81.63;99615.89;1752041;81;21141;-81
2022/05/14 11:35:03;;;;;;;12.40;4.65;;;;;;;17.88;80.87;99618.92;1751582;82;21157;-82
2022/05/14 11:38:08;;;;;;;12.23;4.33;;;;;;;17.82;78.59;99622.09;1752418;81;21188;-78
2022/05/14 11:41:36;;;;;;;16.17;5.33;;;;;;;17.74;79.19;99618.86;1727777;82;21201;-78
2022/05/14 11:44:57;;;;;;;8.65;3.95;;;;;;;17.71;79.55;99631.20;1752209;82;21208;-78
2022/05/14 11:48:20;;;;;;;9.00;4.00;;;;;;;17.79;79.21;99635.58;1752006;81;21205;-78
2022/05/14 11:52:08;;;;;;;9.45;4.10;;;;;;;17.85;78.42;99637.38;1752119;82;21200;-78
2022/05/14 11:55:22;;;;;;;8.93;4.33;;;;;;;17.88;78.19;99647.97;1750631;81;21220;-78
2022/05/14 11:58:32;;;;;;;10.15;5.00;;;;;;;17.85;78.82;99649.28;1750593;81;21762;-78
2022/05/14 12:01:40;;;;;;;7.83;4.00;;;;;;;17.82;78.83;99653.06;1739699;82;21809;-78
2022/05/14 12:04:48;;;;;;;10.50;4.42;;;;;;;17.77;78.54;99652.94;1727181;81;21289;-78
2022/05/14 12:08:20;;;;;;;11.33;4.83;;;;;;;17.70;77.99;99648.88;1750415;81;21219;-78
2022/05/14 12:11:52;;;;;;;10.65;4.62;;;;;;;17.68;77.80;99649.64;1751921;82;21164;-78
2022/05/14 12:14:58;;;;;;;15.03;4.83;;;;;;;17.63;78.40;99640.68;1723765;82;21219;-78
2022/05/14 12:18:06;;;;;;;9.15;4.67;;;;;;;17.53;78.67;99634.91;1751332;81;21208;-80
2022/05/14 12:21:11;;;;;;;11.55;4.60;;;;;;;17.47;78.79;99633.64;1751998;82;21753;-79
2022/05/14 12:24:39;;;;;;;10.20;4.62;;;;;;;17.44;78.63;99632.72;1729674;82;21180;-79
2022/05/14 12:27:54;;;;;;;12.30;5.15;;;;;;;17.36;78.70;99622.84;1701457;81;21249;-79
2022/05/14 12:34:45;;;;;;;15.25;5.75;;;;;;;17.25;80.11;99616.76;1728744;82;21309;-79
2022/05/14 12:37:51;;;;;;;18.57;6.65;;;;;;;17.26;81.34;99609.60;1734078;81;21344;-79
2022/05/14 12:40:57;;;;;;;9.23;5.37;;;;;;;17.28;82.04;99602.48;1734555;82;21185;-78
2022/05/14 12:44:02;;;;;;;9.63;4.75;;;;;;;17.29;82.62;99598.63;1732130;81;21185;-78
2022/05/14 12:47:09;;;;;;;10.13;4.85;;;;;;;17.36;82.71;99591.05;1733736;81;21326;-77
2022/05/14 12:50:32;;;;;;;10.40;5.15;;;;;;;17.42;82.57;99587.91;1731372;82;21242;-78
2022/05/14 12:53:47;;;;;;;12.63;4.65;;;;;;;17.50;83.56;99580.10;1733764;81;21217;-79
2022/05/14 12:56:53;;;;;;;11.53;5.03;;;;;;;17.49;83.57;99579.78;1734734;81;21250;-78
2022/05/14 12:59:58;;;;;;;15.18;4.67;;;;;;;17.50;84.14;99572.32;1733970;82;21694;-78
2022/05/14 13:03:13;;;;;;;14.85;5.85;;;;;;;17.54;83.48;99571.60;1673994;85;21730;-79
2022/05/14 13:06:32;;;;;;;9.90;4.97;;;;;;;17.63;83.22;99573.47;1690055;85;21171;-78
2022/05/14 13:09:31;;;;;;;12.05;4.83;;;;;;;17.70;82.64;99571.45;1689706;85;21735;-79
2022/05/14 13:12:37;;;;;;;12.23;4.72;;;;;;;17.70;82.38;99563.69;1689636;83;21196;-79
2022/05/14 13:15:55;;;;;;;11.83;4.58;;;;;;;17.65;82.69;99558.88;1690179;85;21166;-79
2022/05/14 13:19:03;;;;;;;12.82;4.53;;;;;;;17.61;83.59;99565.43;1690037;83;21212;-79
2022/05/14 13:22:08;;;;;;;16.67;5.20;;;;;;;17.52;84.73;99561.34;1689763;83;21204;-79
2022/05/14 13:25:38;;;;;;;8.00;4.45;;;;;;;17.48;85.91;99564.28;1687282;84;21201;-79
2022/05/14 13:28:47;;;;;;;13.78;4.65;;;;;;;17.50;85.79;99560.75;1685510;85;21310;-79
2022/05/14 13:31:55;;;;;;;9.35;4.47;;;;;;;17.58;84.74;99570.05;1686561;85;22059;-79
2022/05/14 13:38:23;;;;;;;11.75;5.35;;;;;;;17.82;84.88;99553.48;1686209;85;21253;-79
2022/05/14 13:41:35;;;;;;;11.03;4.72;;;;;;;17.96;83.95;99553.52;1686558;85;21742;-79
2022/05/14 13:44:42;;;;;;;11.03;4.05;;;;;;;18.06;83.76;99556.50;1687062;85;21188;-79
2022/05/14 13:47:49;;;;;;;8.55;3.85;;;;;;;18.14;82.47;99556.68;1686779;85;21217;-79
2022/05/14 13:51:01;;;;;;;7.20;3.50;;;;;;;18.18;81.35;99558.42;1686260;85;21173;-79
2022/05/14 13:54:21;;;;;;;10.85;3.35;;;;;;;18.17;78.77;99557.59;1687270;85;21213;-79
2022/05/14 13:57:32;;;;;;;8.73;3.75;;;;;;;18.21;78.61;99566.22;1686904;85;21901;-79
2022/05/14 14:00:45;;;;;;;9.08;3.65;;;;;;;18.29;80.32;99560.31;1686374;85;21224;-79
2022/05/14 14:03:57;;;;;;;10.53;4.05;;;;;;;18.23;80.37;99569.60;1687202;85;21209;-79
2022/05/14 14:07:10;;;;;;;8.73;3.75;;;;;;;18.12;80.92;99570.77;1687022;85;21197;-79
2022/05/14 14:10:19;;;;;;;8.95;3.90;;;;;;;18.13;80.73;99572.45;1686810;85;21730;-79
2022/05/14 14:13:14;;;;;;;11.25;3.92;;;;;;;18.02;80.51;99578.86;1687125;85;21885;-79
2022/05/14 14:16:20;;;;;;;12.23;3.67;;;;;;;17.98;82.18;99576.27;1687459;85;21240;-82
2022/05/14 14:19:26;;;;;;;6.85;3.80;;;;;;;18.00;81.54;99583.77;1687368;85;21221;-80
2022/05/14 14:22:32;;;;;;;6.70;3.20;;;;;;;18.03;81.11;99579.15;1686703;85;21229;-80
2022/05/14 14:25:40;;;;;;;10.78;3.90;;;;;;;18.03;81.19;99583.30;1687478;84;21220;-79
2022/05/14 14:28:46;;;;;;;8.98;3.60;;;;;;;18.03;81.62;99589.37;1685947;85;21257;-80
2022/05/14 14:31:52;;;;;;;8.20;3.77;;;;;;;18.04;82.08;99591.89;1680775;85;21229;-79
2022/05/14 14:34:57;;;;;;;10.20;4.40;;;;;;;18.05;82.46;99592.19;1687208;85;21181;-80
2022/05/14 14:38:03;;;;;;;10.18;4.65;;;;;;;18.07;81.90;99595.57;1686453;85;21220;-80
2022/05/14 14:41:10;;;;;;;8.25;4.37;;;;;;;18.10;81.77;99593.68;1686938;85;21770;-80
2022/05/14 14:44:16;;;;;;;10.85;3.92;;;;;;;18.13;81.68;99584.91;1686951;85;21208;-80
2022/05/14 14:47:23;;;;;;;12.95;3.50;;;;;;;18.20;81.46;99579.77;1686403;85;21213;-79
2022/05/14 14:50:30;;;;;;;5.22;3.10;;;;;;;18.24;81.38;99585.12;1687012;85;21181;-80
2022/05/14 14:53:36;;;;;;;6.67;3.35;;;;;;;18.23;80.48;99577.91;1686840;85;21754;-80
2022/05/14 14:56:42;;;;;;;7.83;3.55;;;;;;;18.20;80.00;99581.16;1686863;85;21314;-80
2022/05/14 14:59:47;;;;;;;9.00;3.47;;;;;;;18.19;78.88;99583.08;1687148;85;21216;-80
2022/05/14 15:03:03;;;;;;;10.58;3.45;;;;;;;18.19;78.73;99581.70;1687226;85;21257;-80
2022/05/14 15:06:07;;;;;;;8.65;3.12;;;;;;;18.17;78.68;99584.42;1687201;85;21237;-80
2022/05/14 15:09:13;;;;;;;7.58;3.08;;;;;;;18.11;78.33;99575.14;1686786;85;21813;-79
2022/05/14 15:12:20;;;;;;;8.38;3.62;;;;;;;18.05;79.32;99578.35;1686185;85;21260;-80